createdAt,value
2022-11-07T00:01:21.585Z,98456.38
2022-11-07T00:04:10.601Z,98448.69
2022-11-07T00:06:58.062Z,98439.25
2022-11-07T00:09:45.185Z,98440.56
2022-11-07T00:12:35.184Z,98451.91
2022-11-07T00:15:22.017Z,98456.44
2022-11-07T00:18:12.038Z,98457.88
2022-11-07T00:21:07.066Z,98462.94
2022-11-07T00:23:53.932Z,98472.31
2022-11-07T00:26:44.358Z,98468.50
2022-11-07T00:29:31.165Z,98463.94
2022-11-07T00:32:22.030Z,98478.81
2022-11-07T00:35:12.745Z,98489.84
2022-11-07T00:37:59.590Z,98481.34
2022-11-07T00:40:56.159Z,98478.34
2022-11-07T00:43:43.101Z,98478.34
2022-11-07T00:46:29.987Z,98485.31
2022-11-07T00:49:16.814Z,98492.09
2022-11-07T00:52:03.792Z,98494.75
2022-11-07T00:54:50.545Z,98489.56
2022-11-07T00:57:37.315Z,98501.84
2022-11-07T01:00:24.102Z,98506.38
2022-11-07T01:03:29.529Z,98512.31
2022-11-07T01:06:16.289Z,98520.09
2022-11-07T01:09:04.829Z,98526.59
2022-11-07T01:11:51.614Z,98532.28
2022-11-07T01:14:38.399Z,98523.38
2022-11-07T01:17:25.215Z,98515.00
2022-11-07T01:20:12.660Z,98521.81
2022-11-07T01:22:59.415Z,98526.50
2022-11-07T01:25:46.215Z,98518.91
2022-11-07T01:28:36.146Z,98523.56
2022-11-07T01:31:22.945Z,98531.28
2022-11-07T01:34:35.049Z,98535.50
2022-11-07T01:37:21.793Z,98536.22
2022-11-07T01:40:09.264Z,98539.94
2022-11-07T01:42:56.165Z,98543.56
2022-11-07T01:45:43.009Z,98544.66
2022-11-07T01:48:31.902Z,98542.47
2022-11-07T01:51:20.248Z,98542.38
2022-11-07T01:54:13.619Z,98536.56
2022-11-07T01:57:05.103Z,98535.88
2022-11-07T01:59:54.834Z,98537.53
2022-11-07T02:02:44.218Z,98530.88
2022-11-07T02:05:35.323Z,98540.69
2022-11-07T02:08:23.524Z,98543.34
2022-11-07T02:11:12.217Z,98538.88
2022-11-07T02:13:59.052Z,98538.88
2022-11-07T02:16:46.771Z,98539.50
2022-11-07T02:19:45.784Z,98533.09
2022-11-07T02:22:36.570Z,98545.38
2022-11-07T02:25:23.423Z,98543.25
2022-11-07T02:28:12.331Z,98532.41
2022-11-07T02:30:59.168Z,98539.13
2022-11-07T02:33:46.003Z,98522.28
2022-11-07T02:36:33.185Z,98528.81
2022-11-07T02:39:20.393Z,98528.81
2022-11-07T02:42:07.491Z,98528.94
2022-11-07T02:44:55.761Z,98527.97
2022-11-07T02:47:42.769Z,98514.56
2022-11-07T02:50:30.005Z,98524.19
2022-11-07T02:53:17.095Z,98527.34
2022-11-07T02:56:05.173Z,98526.41
2022-11-07T02:58:55.008Z,98526.06
2022-11-07T03:01:41.933Z,98529.06
2022-11-07T03:04:28.821Z,98502.66
2022-11-07T03:07:15.619Z,98528.00
2022-11-07T03:10:04.802Z,98521.56
2022-11-07T03:12:51.578Z,98540.41
2022-11-07T03:15:38.487Z,98537.38
2022-11-07T03:18:25.596Z,98531.59
2022-11-07T03:21:12.435Z,98531.75
2022-11-07T03:23:59.262Z,98529.59
2022-11-07T03:26:46.039Z,98529.22
2022-11-07T03:29:32.850Z,98526.34
2022-11-07T03:32:19.611Z,98535.03
2022-11-07T03:34:46.245Z,98531.66
2022-11-07T03:37:12.675Z,98530.44
2022-11-07T03:39:39.134Z,98529.72
2022-11-07T03:42:05.755Z,98518.50
2022-11-07T03:44:32.206Z,98531.66
2022-11-07T03:46:58.670Z,98534.06
2022-11-07T03:49:27.463Z,98527.94
2022-11-07T03:51:53.975Z,98538.19
2022-11-07T03:54:20.445Z,98539.84
2022-11-07T03:56:46.889Z,98544.91
2022-11-07T03:59:13.348Z,98546.50
2022-11-07T04:01:39.912Z,98545.41
2022-11-07T04:04:10.753Z,98556.88
2022-11-07T04:06:37.278Z,98557.72
2022-11-07T04:09:04.038Z,98558.56
2022-11-07T04:12:02.834Z,98545.88
2022-11-07T04:14:47.619Z,98556.97
2022-11-07T04:17:20.534Z,98557.44
2022-11-07T04:19:48.998Z,98560.47
2022-11-07T04:22:15.705Z,98570.59
2022-11-07T04:24:45.716Z,98565.28
2022-11-07T04:27:33.640Z,98568.91
2022-11-07T04:30:18.770Z,98580.59
2022-11-07T04:32:53.255Z,98572.78
2022-11-07T04:35:24.774Z,98573.34
2022-11-07T04:37:51.659Z,98581.28
2022-11-07T04:40:18.432Z,98561.97
2022-11-07T04:42:45.731Z,98558.84
2022-11-07T04:45:12.636Z,98572.09
2022-11-07T04:47:40.810Z,98572.75
2022-11-07T04:50:11.547Z,98568.28
2022-11-07T04:52:38.301Z,98574.66
2022-11-07T04:55:06.086Z,98573.53
2022-11-07T04:57:34.911Z,98588.34
2022-11-07T05:00:04.613Z,98579.81
2022-11-07T05:02:31.228Z,98584.22
2022-11-07T05:04:57.646Z,98584.94
2022-11-07T05:07:26.295Z,98588.91
2022-11-07T05:09:55.059Z,98586.25
2022-11-07T05:12:21.553Z,98585.31
2022-11-07T05:14:47.990Z,98584.06
2022-11-07T05:17:15.314Z,98587.78
2022-11-07T05:19:43.240Z,98583.09
2022-11-07T05:22:29.053Z,98592.16
2022-11-07T05:25:00.107Z,98606.84
2022-11-07T05:27:26.579Z,98599.63
2022-11-07T05:29:53.077Z,98597.44
2022-11-07T05:32:21.947Z,98583.94
2022-11-07T05:34:49.279Z,98596.50
2022-11-07T05:37:18.080Z,98606.03
2022-11-07T05:39:49.939Z,98600.00
2022-11-07T05:42:20.352Z,98608.44
2022-11-07T05:44:46.785Z,98600.94
2022-11-07T05:47:13.237Z,98597.13
2022-11-07T05:49:41.750Z,98603.59
2022-11-07T05:52:08.172Z,98614.09
2022-11-07T05:54:34.615Z,98609.69
2022-11-07T05:57:01.109Z,98616.81
2022-11-07T05:59:30.118Z,98618.50
2022-11-07T06:01:59.007Z,98604.81
2022-11-07T06:04:25.475Z,98608.19
2022-11-07T06:06:51.916Z,98617.09
2022-11-07T06:09:18.339Z,98619.97
2022-11-07T06:11:45.239Z,98620.03
2022-11-07T06:14:13.846Z,98618.44
2022-11-07T06:16:40.283Z,98617.59
2022-11-07T06:19:08.810Z,98628.19
2022-11-07T06:21:37.890Z,98628.72
2022-11-07T06:24:04.622Z,98627.03
2022-11-07T06:26:31.059Z,98638.00
2022-11-07T06:28:57.545Z,98631.84
2022-11-07T06:31:24.150Z,98635.75
2022-11-07T06:33:53.041Z,98632.75
2022-11-07T06:36:19.562Z,98642.84
2022-11-07T06:38:48.627Z,98647.09
2022-11-07T06:41:15.216Z,98648.47
2022-11-07T06:43:41.739Z,98651.53
2022-11-07T06:46:14.480Z,98651.47
2022-11-07T06:48:40.943Z,98659.75
2022-11-07T06:51:09.777Z,98661.44
2022-11-07T06:53:37.163Z,98657.72
2022-11-07T06:56:05.994Z,98663.94
2022-11-07T06:58:32.728Z,98670.78
2022-11-07T07:01:03.004Z,98677.63
2022-11-07T07:03:32.031Z,98686.31
2022-11-07T07:06:05.945Z,98678.03
2022-11-07T07:08:33.527Z,98677.84
2022-11-07T07:11:04.985Z,98680.03
2022-11-07T07:13:31.685Z,98687.09
2022-11-07T07:15:59.110Z,98689.97
2022-11-07T07:18:26.639Z,98680.31
2022-11-07T07:21:01.669Z,98686.84
2022-11-07T07:23:28.116Z,98687.81
2022-11-07T07:25:54.845Z,98683.69
2022-11-07T07:28:23.527Z,98684.13
2022-11-07T07:30:52.067Z,98688.63
2022-11-07T07:33:21.633Z,98686.13
2022-11-07T07:35:50.407Z,98683.28
2022-11-07T07:38:16.897Z,98698.78
2022-11-07T07:40:45.622Z,98689.56
2022-11-07T07:43:12.292Z,98684.81
2022-11-07T07:45:38.899Z,98702.19
2022-11-07T07:48:08.270Z,98692.09
2022-11-07T07:50:34.731Z,98708.03
2022-11-07T07:53:08.686Z,98732.22
2022-11-07T07:55:35.857Z,98729.81
2022-11-07T07:58:02.299Z,98739.84
2022-11-07T08:00:28.739Z,98726.56
2022-11-07T08:03:02.259Z,98716.94
2022-11-07T08:05:28.759Z,98721.13
2022-11-07T08:07:55.227Z,98711.81
2022-11-07T08:13:10.754Z,98749.66
2022-11-07T08:15:37.514Z,98915.59
2022-11-07T08:18:04.458Z,99124.81
2022-11-07T08:20:31.133Z,99189.50
2022-11-07T08:23:05.115Z,99011.16
2022-11-07T08:25:33.878Z,98532.66
2022-11-07T08:28:00.487Z,98475.88
2022-11-07T08:30:28.270Z,98264.38
2022-11-07T08:32:56.417Z,98159.47
2022-11-07T08:35:22.876Z,97921.91
2022-11-07T08:37:52.520Z,98017.81
2022-11-07T08:40:19.297Z,97940.19
2022-11-07T08:42:45.783Z,97879.72
2022-11-07T08:45:12.251Z,97902.97
2022-11-07T08:47:38.701Z,98866.47
2022-11-07T08:50:05.674Z,98795.50
2022-11-07T08:52:36.002Z,98315.94
2022-11-07T08:55:05.768Z,97978.13
2022-11-07T08:57:37.255Z,97976.22
2022-11-07T09:00:06.607Z,98050.31
2022-11-07T09:03:23.879Z,98094.03
2022-11-07T09:05:19.563Z,98021.91
2022-11-07T09:07:48.160Z,98069.44
2022-11-07T09:10:16.969Z,98156.69
2022-11-07T09:12:48.077Z,98238.06
2022-11-07T09:15:15.142Z,98308.78
2022-11-07T09:17:41.715Z,98238.38
2022-11-07T09:20:09.483Z,98355.56
2022-11-07T09:22:36.271Z,98496.56
2022-11-07T09:25:02.909Z,98362.75
2022-11-07T09:27:29.514Z,98527.63
2022-11-07T09:29:55.999Z,98580.66
2022-11-07T09:32:42.692Z,98620.25
2022-11-07T09:35:13.126Z,98600.59
2022-11-07T09:37:41.184Z,98565.63
2022-11-07T09:40:52.419Z,97893.28
2022-11-07T09:43:25.462Z,98298.53
2022-11-07T09:46:13.514Z,98240.28
2022-11-07T09:48:52.604Z,98203.19
2022-11-07T09:51:38.610Z,98121.00
2022-11-07T09:54:14.177Z,98303.97
2022-11-07T09:56:42.465Z,98579.59
2022-11-07T09:59:22.518Z,98337.66
2022-11-07T10:01:49.125Z,98676.69
2022-11-07T10:04:27.220Z,98456.31
2022-11-07T10:06:56.225Z,97889.66
2022-11-07T10:09:50.213Z,99098.63
2022-11-07T10:12:44.484Z,99306.69
2022-11-07T10:15:45.065Z,99273.72
2022-11-07T10:18:42.690Z,99153.66
2022-11-07T10:21:37.190Z,99085.81
2022-11-07T10:24:33.431Z,99012.66
2022-11-07T10:27:01.915Z,99004.53
2022-11-07T10:29:44.906Z,98980.66
2022-11-07T10:32:17.004Z,98979.13
2022-11-07T10:35:16.571Z,98965.47
2022-11-07T10:37:43.098Z,98984.06
2022-11-07T10:40:16.238Z,98984.34
2022-11-07T10:42:46.103Z,98966.84
2022-11-07T10:45:17.503Z,98966.06
2022-11-07T10:47:54.982Z,98958.19
2022-11-07T10:50:23.740Z,98953.97
2022-11-07T10:53:00.356Z,98937.16
2022-11-07T10:55:31.400Z,98934.25
2022-11-07T10:58:05.899Z,98914.88
2022-11-07T11:00:34.424Z,98912.59
2022-11-07T11:03:14.954Z,98903.00
2022-11-07T11:05:48.682Z,98891.44
2022-11-07T11:08:20.831Z,98896.97
2022-11-07T11:10:48.405Z,98878.38
2022-11-07T11:13:35.896Z,98882.41
2022-11-07T11:16:26.376Z,98861.94
2022-11-07T11:18:59.384Z,98888.13
2022-11-07T11:21:25.898Z,98890.34
2022-11-07T11:23:54.239Z,98883.63
2022-11-07T11:26:33.344Z,98873.25
2022-11-07T11:29:03.494Z,98856.06
2022-11-07T11:31:35.075Z,98791.25
2022-11-07T11:34:18.323Z,98861.94
2022-11-07T11:37:14.648Z,98860.28
2022-11-07T11:39:59.367Z,98854.44
2022-11-07T11:42:38.076Z,98852.50
2022-11-07T11:45:33.132Z,98852.75
2022-11-07T11:48:13.460Z,98852.91
2022-11-07T11:50:48.186Z,98852.31
2022-11-07T11:53:22.623Z,98836.16
2022-11-07T11:56:07.312Z,98835.78
2022-11-07T11:58:46.842Z,98836.16
2022-11-07T12:01:30.226Z,98842.53
2022-11-07T12:04:14.329Z,98858.75
2022-11-07T12:06:46.202Z,98851.31
2022-11-07T12:09:32.914Z,98873.16
2022-11-07T12:12:19.894Z,98875.28
2022-11-07T12:15:25.515Z,98872.00
2022-11-07T12:17:57.912Z,98875.69
2022-11-07T12:20:34.812Z,98880.06
2022-11-07T12:23:10.374Z,98879.88
2022-11-07T12:26:04.251Z,98886.59
2022-11-07T12:28:44.155Z,98916.16
2022-11-07T12:31:44.575Z,98919.56
2022-11-07T12:34:13.983Z,98917.72
2022-11-07T12:36:54.264Z,98889.38
2022-11-07T12:39:42.279Z,98883.25
2022-11-07T12:42:23.784Z,98856.13
2022-11-07T12:45:02.500Z,98848.84
2022-11-07T12:47:53.796Z,98855.47
2022-11-07T12:50:33.366Z,98844.78
2022-11-07T12:53:15.414Z,98846.13
2022-11-07T12:55:52.057Z,98872.63
2022-11-07T12:58:25.067Z,98879.72
2022-11-07T13:00:54.999Z,98874.63
2022-11-07T13:03:57.579Z,98892.47
2022-11-07T13:06:42.258Z,98890.59
2022-11-07T13:09:21.663Z,98888.94
2022-11-07T13:12:00.272Z,98909.03
2022-11-07T13:14:36.904Z,98891.94
2022-11-07T13:17:32.400Z,98904.03
2022-11-07T13:20:05.498Z,98900.06
2022-11-07T13:22:37.445Z,98874.13
2022-11-07T13:25:16.967Z,98867.38
2022-11-07T13:27:56.967Z,98872.59
2022-11-07T13:30:37.830Z,98862.59
2022-11-07T13:33:05.938Z,98865.84
2022-11-07T13:35:38.080Z,98885.69
2022-11-07T13:38:11.486Z,98872.28
2022-11-07T13:40:50.704Z,98877.34
2022-11-07T13:43:23.540Z,98867.78
2022-11-07T13:45:52.113Z,98853.09
2022-11-07T13:48:25.411Z,98849.75
2022-11-07T13:51:03.035Z,98823.41
2022-11-07T13:54:14.582Z,98811.31
2022-11-07T13:57:01.631Z,98798.47
2022-11-07T13:59:36.977Z,98796.84
2022-11-07T14:02:04.577Z,98794.41
2022-11-07T14:04:39.888Z,98791.31
2022-11-07T14:07:13.714Z,98797.91
2022-11-07T14:09:40.414Z,98776.16
2022-11-07T14:12:09.167Z,98765.53
2022-11-07T14:14:36.046Z,98781.84
2022-11-07T14:17:05.078Z,98779.59
2022-11-07T14:19:32.170Z,98778.91
2022-11-07T14:21:58.943Z,98779.34
2022-11-07T14:24:28.363Z,98786.94
2022-11-07T14:27:00.773Z,98775.38
2022-11-07T14:29:29.558Z,98773.56
2022-11-07T14:32:01.855Z,98770.22
2022-11-07T14:34:30.563Z,98766.34
2022-11-07T14:37:02.145Z,98764.34
2022-11-07T14:39:30.938Z,98771.00
2022-11-07T14:42:00.923Z,98771.03
2022-11-07T14:44:53.416Z,98769.38
2022-11-07T14:47:31.820Z,98759.50
2022-11-07T14:50:04.437Z,98757.81
2022-11-07T14:52:36.430Z,98762.50
2022-11-07T14:55:38.476Z,98763.50
2022-11-07T14:58:06.105Z,98761.53
2022-11-07T15:00:33.495Z,98757.88
2022-11-07T15:03:00.376Z,98756.88
2022-11-07T15:05:45.011Z,98758.56
2022-11-07T15:08:35.437Z,98758.47
2022-11-07T15:11:24.397Z,98767.75
2022-11-07T15:13:53.281Z,98745.00
2022-11-07T15:16:22.731Z,98755.84
2022-11-07T15:19:01.450Z,98754.81
2022-11-07T15:21:32.000Z,98748.38
2022-11-07T15:24:00.561Z,98745.47
2022-11-07T15:26:35.022Z,98760.84
2022-11-07T15:29:19.860Z,98760.56
2022-11-07T15:31:48.362Z,98759.88
2022-11-07T15:34:29.058Z,98757.63
2022-11-07T15:37:17.421Z,98757.38
2022-11-07T15:39:46.651Z,98749.66
2022-11-07T15:42:13.504Z,98742.50
2022-11-07T15:44:42.208Z,98741.06
2022-11-07T15:47:17.394Z,98743.19
2022-11-07T15:49:43.929Z,98743.75
2022-11-07T15:52:10.468Z,98742.34
2022-11-07T15:54:36.907Z,98743.91
2022-11-07T15:57:07.057Z,98743.44
2022-11-07T15:59:35.604Z,98732.63
2022-11-07T16:02:02.448Z,98725.19
2022-11-07T16:04:29.402Z,98733.50
2022-11-07T16:06:56.048Z,98735.44
2022-11-07T16:09:22.756Z,98746.28
2022-11-07T16:11:49.223Z,98738.69
2022-11-07T16:14:43.602Z,98736.69
2022-11-07T16:17:17.000Z,98732.63
2022-11-07T16:19:45.858Z,98741.19
2022-11-07T16:22:16.051Z,98748.91
2022-11-07T16:24:42.511Z,98738.09
2022-11-07T16:27:19.818Z,98741.34
2022-11-07T16:29:48.616Z,98737.66
2022-11-07T16:32:18.395Z,98742.59
2022-11-07T16:34:45.728Z,98736.66
2022-11-07T16:37:14.507Z,98746.09
2022-11-07T16:39:40.951Z,98734.50
2022-11-07T16:42:14.265Z,98754.75
2022-11-07T16:44:43.165Z,98758.00
2022-11-07T16:47:14.177Z,98757.16
2022-11-07T16:49:41.423Z,98766.44
2022-11-07T16:52:18.979Z,98773.88
2022-11-07T16:54:45.967Z,98769.53
2022-11-07T16:57:17.779Z,98772.34
2022-11-07T16:59:46.866Z,98716.81
2022-11-07T17:02:21.942Z,98772.34
2022-11-07T17:04:52.996Z,98775.44
2022-11-07T17:07:22.869Z,98770.94
2022-11-07T17:09:49.906Z,98767.69
2022-11-07T17:12:17.983Z,98771.88
2022-11-07T17:14:47.081Z,98773.16
2022-11-07T17:17:16.033Z,98767.53
2022-11-07T17:19:43.305Z,98777.31
2022-11-07T17:22:13.707Z,98771.00
2022-11-07T17:24:42.974Z,98772.28
2022-11-07T17:27:20.620Z,98749.88
2022-11-07T17:29:52.139Z,98768.88
2022-11-07T17:32:19.564Z,98776.75
2022-11-07T17:34:46.743Z,98767.34
2022-11-07T17:37:21.755Z,98770.97
2022-11-07T17:39:50.518Z,98774.50
2022-11-07T17:42:17.128Z,98757.59
2022-11-07T17:44:43.592Z,98772.38
2022-11-07T17:47:28.131Z,98759.56
2022-11-07T17:49:55.762Z,98770.78
2022-11-07T17:52:22.300Z,98761.63
2022-11-07T17:54:48.908Z,98753.50
2022-11-07T17:57:17.505Z,98755.16
2022-11-07T17:59:46.010Z,98751.94
2022-11-07T18:02:18.592Z,98737.69
2022-11-07T18:05:03.624Z,98741.44
2022-11-07T18:07:48.973Z,98748.25
2022-11-07T18:10:35.783Z,98742.00
2022-11-07T18:13:22.575Z,98727.78
2022-11-07T18:16:11.052Z,98729.09
2022-11-07T18:18:59.088Z,98719.53
2022-11-07T18:21:48.364Z,98710.59
2022-11-07T18:24:35.181Z,98705.72
2022-11-07T18:27:22.177Z,98688.47
2022-11-07T18:30:09.832Z,98695.72
2022-11-07T18:32:56.664Z,98690.97
2022-11-07T18:35:45.845Z,98692.81
2022-11-07T18:38:33.003Z,98694.94
2022-11-07T18:41:23.106Z,98694.34
2022-11-07T18:44:11.702Z,98704.22
2022-11-07T18:46:58.550Z,98700.44
2022-11-07T18:49:45.450Z,98705.13
2022-11-07T18:52:33.060Z,98709.00
2022-11-07T18:55:22.806Z,98701.47
2022-11-07T18:58:13.384Z,98703.44
2022-11-07T19:01:06.540Z,98696.63
2022-11-07T19:03:58.238Z,98704.66
2022-11-07T19:06:59.375Z,98706.47
2022-11-07T19:09:46.147Z,98704.16
2022-11-07T19:12:32.949Z,98698.09
2022-11-07T19:15:24.912Z,98692.25
2022-11-07T19:18:11.678Z,98709.06
2022-11-07T19:20:58.547Z,98705.31
2022-11-07T19:23:45.320Z,98713.06
2022-11-07T19:26:32.426Z,98714.03
2022-11-07T19:29:21.640Z,98719.09
2022-11-07T19:32:08.907Z,98729.16
2022-11-07T19:34:55.715Z,98716.16
2022-11-07T19:37:44.311Z,98710.97
2022-11-07T19:40:31.430Z,98713.97
2022-11-07T19:43:20.387Z,98709.31
2022-11-07T19:46:13.149Z,98711.16
2022-11-07T19:49:02.041Z,98712.41
2022-11-07T19:51:48.911Z,98719.34
2022-11-07T19:54:38.348Z,98718.50
2022-11-07T19:57:25.150Z,98710.41
2022-11-07T20:00:13.108Z,98710.69
2022-11-07T20:02:59.944Z,98709.59
2022-11-07T20:05:48.857Z,98715.91
2022-11-07T20:08:39.026Z,98713.25
2022-11-07T20:11:26.716Z,98716.63
2022-11-07T20:14:13.649Z,98730.19
2022-11-07T20:17:00.907Z,98723.88
2022-11-07T20:19:47.840Z,98725.28
2022-11-07T20:22:35.748Z,98729.66
2022-11-07T20:25:22.580Z,98719.41
2022-11-07T20:28:09.571Z,98714.88
2022-11-07T20:30:56.421Z,98723.56
2022-11-07T20:33:43.316Z,98726.16
2022-11-07T20:36:31.227Z,98729.47
2022-11-07T20:39:18.080Z,98738.25
2022-11-07T20:42:04.983Z,98728.16
2022-11-07T20:44:51.839Z,98722.84
2022-11-07T20:47:39.733Z,98716.13
2022-11-07T20:50:26.540Z,98718.78
2022-11-07T20:53:13.605Z,98722.59
2022-11-07T20:56:05.270Z,98725.88
2022-11-07T20:58:53.019Z,98723.63
2022-11-07T21:01:40.214Z,98713.75
2022-11-07T21:04:27.062Z,98716.66
2022-11-07T21:07:17.971Z,98729.72
2022-11-07T21:10:05.104Z,98722.75
2022-11-07T21:12:54.396Z,98712.59
2022-11-07T21:15:41.262Z,98721.19
2022-11-07T21:18:28.071Z,98711.25
2022-11-07T21:21:18.509Z,98719.94
2022-11-07T21:24:05.579Z,98729.16
2022-11-07T21:26:52.383Z,98724.31
2022-11-07T21:29:39.215Z,98725.91
2022-11-07T21:32:25.983Z,98718.69
2022-11-07T21:35:15.694Z,98726.69
2022-11-07T21:38:02.494Z,98726.09
2022-11-07T21:40:49.409Z,98727.28
2022-11-07T21:43:44.308Z,98726.84
2022-11-07T21:46:34.354Z,98731.06
2022-11-07T21:49:21.219Z,98728.66
2022-11-07T21:52:07.987Z,98717.06
2022-11-07T21:54:54.824Z,98724.53
2022-11-07T21:57:41.619Z,98723.09
2022-11-07T22:00:31.725Z,98721.66
2022-11-07T22:03:43.706Z,98729.88
2022-11-07T22:06:32.983Z,98717.34
2022-11-07T22:09:22.290Z,98725.41
2022-11-07T22:12:11.507Z,98716.81
2022-11-07T22:14:58.453Z,98707.88
2022-11-07T22:17:45.234Z,98704.88
2022-11-07T22:20:32.051Z,98713.53
2022-11-07T22:23:18.983Z,98707.66
2022-11-07T22:26:09.599Z,98702.78
2022-11-07T22:28:56.490Z,98690.88
2022-11-07T22:31:43.306Z,98701.97
2022-11-07T22:34:30.214Z,98697.50
2022-11-07T22:37:17.110Z,98695.47
2022-11-07T22:40:06.732Z,98680.25
2022-11-07T22:42:53.516Z,98680.84
2022-11-07T22:45:41.259Z,98665.63
2022-11-07T22:48:28.207Z,98682.41
2022-11-07T22:51:17.666Z,98680.38
2022-11-07T22:54:06.988Z,98685.78
2022-11-07T22:56:53.811Z,98683.47
2022-11-07T22:59:43.095Z,98688.44
2022-11-07T23:02:31.976Z,98685.50
2022-11-07T23:05:18.897Z,98685.50
2022-11-07T23:08:05.691Z,98682.50
2022-11-07T23:14:12.791Z,98674.78
2022-11-07T23:16:59.567Z,98665.97
2022-11-07T23:19:46.342Z,98678.34
2022-11-07T23:22:33.260Z,98670.06
2022-11-07T23:25:20.057Z,98672.69
2022-11-07T23:28:07.426Z,98671.84
2022-11-07T23:30:54.270Z,98674.13
2022-11-07T23:33:41.113Z,98662.09
2022-11-07T23:36:27.898Z,98656.69
2022-11-07T23:39:20.911Z,98659.16
2022-11-07T23:42:10.687Z,98647.72
2022-11-07T23:45:16.262Z,98654.00
2022-11-07T23:48:21.838Z,98646.38
2022-11-07T23:51:11.859Z,98653.59
2022-11-07T23:54:17.434Z,98641.28
2022-11-07T23:57:04.210Z,98639.72
